Time;durP1;ratioP1;P1;durP2;ratioP2;P2;SDS_P1;SDS_P2;PMS_P1;PMS_P2;Temp;Humidity;BMP_temperature;BMP_pressure;BME280_temperature;BME280_humidity;BME280_pressure;Samples;Min_cycle;Max_cycle;Signal;HPM_P1;HPM_P2
2021/07/10 00:02:02;;;;;;;1.07;0.97;;;19.00;99.90;;;;;;4937202;29;20208;-78
2021/07/10 00:04:28;;;;;;;0.90;0.80;;;18.90;99.90;;;;;;4942513;29;20183;-78
2021/07/10 00:06:56;;;;;;;1.47;1.10;;;18.90;99.90;;;;;;4943171;29;20457;-78
2021/07/10 00:09:22;;;;;;;1.57;0.70;;;18.80;99.90;;;;;;4938721;28;20831;-78
2021/07/10 00:11:48;;;;;;;1.00;0.90;;;18.80;99.90;;;;;;4937231;29;20473;-78
2021/07/10 00:14:13;;;;;;;1.20;1.10;;;18.70;99.90;;;;;;4938163;29;20650;-78
2021/07/10 00:16:39;;;;;;;0.80;0.60;;;18.70;99.90;;;;;;4944177;29;20241;-79
2021/07/10 00:19:05;;;;;;;1.10;1.00;;;18.60;99.90;;;;;;4935901;29;20178;-78
2021/07/10 00:21:31;;;;;;;1.57;1.47;;;18.60;99.90;;;;;;4938800;29;20191;-78
2021/07/10 00:23:57;;;;;;;1.10;1.00;;;18.50;99.90;;;;;;4934608;29;20667;-77
2021/07/10 00:26:22;;;;;;;0.80;0.80;;;18.50;99.90;;;;;;4936253;29;20453;-78
2021/07/10 00:28:48;;;;;;;0.87;0.87;;;18.40;99.90;;;;;;4937152;29;20435;-77
2021/07/10 00:31:14;;;;;;;0.97;0.83;;;18.40;99.90;;;;;;4934551;29;20800;-78
2021/07/10 00:33:39;;;;;;;3.50;3.17;;;18.30;99.90;;;;;;4934888;28;20668;-80
2021/07/10 00:36:05;;;;;;;2.40;2.20;;;18.30;99.90;;;;;;4933284;29;20179;-77
2021/07/10 00:38:30;;;;;;;0.80;0.80;;;18.20;99.90;;;;;;4935575;29;20258;-77
2021/07/10 00:40:56;;;;;;;1.30;0.70;;;18.20;99.90;;;;;;4936443;29;20194;-78
2021/07/10 00:43:21;;;;;;;2.87;1.47;;;18.10;99.90;;;;;;4942836;29;20178;-79
2021/07/10 00:45:48;;;;;;;0.70;0.60;;;18.10;99.90;;;;;;4948360;28;20199;-79
2021/07/10 00:48:14;;;;;;;1.00;0.83;;;18.00;99.90;;;;;;4952704;29;20552;-77
2021/07/10 00:50:40;;;;;;;1.17;1.07;;;18.00;99.90;;;;;;4937488;28;20447;-78
2021/07/10 00:53:05;;;;;;;6.30;0.87;;;18.00;99.90;;;;;;4939791;29;20879;-78
2021/07/10 00:55:31;;;;;;;3.73;1.20;;;18.00;99.90;;;;;;4940607;29;20426;-78
2021/07/10 00:57:59;;;;;;;2.03;1.80;;;17.90;99.90;;;;;;4935003;29;20186;-78
2021/07/10 01:00:25;;;;;;;2.17;0.90;;;17.90;99.90;;;;;;4938382;29;20205;-77
2021/07/10 01:02:53;;;;;;;0.90;0.90;;;17.80;99.90;;;;;;4954515;28;20430;-77
2021/07/10 01:05:27;;;;;;;1.73;1.63;;;17.80;99.90;;;;;;4953585;28;20174;-78
2021/07/10 01:07:53;;;;;;;1.10;1.00;;;17.70;99.90;;;;;;4950027;28;20950;-78
2021/07/10 01:10:19;;;;;;;1.20;0.80;;;17.70;99.90;;;;;;4950956;28;20532;-78
2021/07/10 01:12:48;;;;;;;1.93;1.43;;;17.70;99.90;;;;;;4936185;29;20427;-78
2021/07/10 01:15:18;;;;;;;1.00;0.90;;;17.70;99.90;;;;;;4936001;28;20511;-78
2021/07/10 01:17:45;;;;;;;1.73;1.33;;;17.70;99.90;;;;;;4947537;29;20428;-77
2021/07/10 01:20:14;;;;;;;1.40;1.00;;;17.70;99.90;;;;;;4941644;28;20438;-78
2021/07/10 01:22:41;;;;;;;1.30;0.97;;;17.80;99.90;;;;;;4951310;29;20822;-76
2021/07/10 01:25:09;;;;;;;0.93;0.83;;;17.80;99.90;;;;;;4946338;29;20984;-78
2021/07/10 01:27:35;;;;;;;1.50;1.40;;;17.80;99.90;;;;;;4955884;29;20449;-79
2021/07/10 01:30:07;;;;;;;1.53;0.77;;;17.80;99.90;;;;;;4957293;29;20803;-79
2021/07/10 01:32:35;;;;;;;0.80;0.77;;;17.80;99.90;;;;;;4957742;28;20182;-77
2021/07/10 01:35:00;;;;;;;1.20;0.97;;;17.80;99.90;;;;;;4943919;29;20426;-79
2021/07/10 01:37:26;;;;;;;2.30;2.20;;;17.70;99.90;;;;;;4937887;28;20427;-78
2021/07/10 01:39:51;;;;;;;0.80;0.70;;;17.70;99.90;;;;;;4938721;29;20644;-77
2021/07/10 01:42:19;;;;;;;0.70;0.60;;;17.70;99.90;;;;;;4942278;29;20219;-79
2021/07/10 01:44:46;;;;;;;1.97;1.87;;;17.70;99.90;;;;;;4944345;29;20226;-80
2021/07/10 01:47:11;;;;;;;1.30;1.20;;;17.70;99.90;;;;;;4956908;28;20461;-81
2021/07/10 01:49:37;;;;;;;1.27;0.77;;;17.70;99.90;;;;;;4950518;28;20415;-79
2021/07/10 01:52:03;;;;;;;2.80;1.23;;;17.60;99.90;;;;;;4956964;28;20223;-80
2021/07/10 01:54:28;;;;;;;1.10;0.67;;;17.60;99.90;;;;;;4954900;29;20188;-77
2021/07/10 01:56:54;;;;;;;1.23;1.13;;;17.50;99.90;;;;;;4948549;28;20430;-78
2021/07/10 01:59:19;;;;;;;0.70;0.60;;;17.40;99.90;;;;;;4956095;28;20229;-78
2021/07/10 02:01:49;;;;;;;0.80;0.73;;;17.30;99.90;;;;;;4952831;28;20661;-77
2021/07/10 02:04:18;;;;;;;1.10;0.83;;;17.10;99.90;;;;;;4948128;28;20175;-77
2021/07/10 02:06:44;;;;;;;1.10;0.73;;;17.10;99.90;;;;;;4950267;28;20453;-78
2021/07/10 02:09:10;;;;;;;1.97;1.87;;;17.10;99.90;;;;;;4936853;29;20426;-78
2021/07/10 02:11:37;;;;;;;1.37;1.03;;;17.00;99.90;;;;;;4935598;29;20482;-78
2021/07/10 02:14:03;;;;;;;0.70;0.50;;;17.10;99.90;;;;;;4951810;28;20225;-79
2021/07/10 02:16:30;;;;;;;1.37;0.80;;;17.10;99.90;;;;;;4940110;29;20557;-76
2021/07/10 02:18:56;;;;;;;1.07;0.97;;;17.10;99.90;;;;;;4935599;29;20556;-77
2021/07/10 02:21:21;;;;;;;2.03;1.57;;;17.00;99.90;;;;;;4944710;29;20477;-76
2021/07/10 02:23:48;;;;;;;1.10;1.00;;;17.00;99.90;;;;;;4938782;29;20936;-77
2021/07/10 02:26:14;;;;;;;0.97;0.90;;;17.00;99.90;;;;;;4949166;29;20280;-77
2021/07/10 02:28:40;;;;;;;1.20;1.10;;;17.00;99.90;;;;;;4936707;29;20517;-78
2021/07/10 02:31:05;;;;;;;2.93;1.83;;;16.90;99.90;;;;;;4935974;29;20214;-77
2021/07/10 02:33:31;;;;;;;4.53;2.23;;;16.80;99.90;;;;;;4937069;29;20176;-78
2021/07/10 02:35:56;;;;;;;1.00;0.80;;;16.80;99.90;;;;;;4953391;28;20311;-77
2021/07/10 02:38:22;;;;;;;0.90;0.90;;;16.80;99.90;;;;;;4937349;29;20179;-77
2021/07/10 02:40:47;;;;;;;0.90;0.70;;;16.70;99.90;;;;;;4943509;28;20280;-77
2021/07/10 02:43:13;;;;;;;1.57;1.47;;;16.70;99.90;;;;;;4935938;29;20683;-77
2021/07/10 02:45:39;;;;;;;1.60;1.50;;;16.60;99.90;;;;;;4935994;29;20541;-78
2021/07/10 02:48:05;;;;;;;0.70;0.50;;;16.60;99.90;;;;;;4936617;29;20429;-77
2021/07/10 02:50:31;;;;;;;1.50;1.40;;;16.60;99.90;;;;;;4937485;29;20530;-78
2021/07/10 02:52:56;;;;;;;4.13;1.00;;;16.60;99.90;;;;;;4942910;29;20538;-78
2021/07/10 02:55:24;;;;;;;1.20;1.10;;;16.60;99.90;;;;;;4949523;28;20635;-78
2021/07/10 02:57:50;;;;;;;1.27;1.13;;;16.60;99.90;;;;;;4940535;29;20197;-76
2021/07/10 03:00:18;;;;;;;4.10;2.20;;;16.60;99.90;;;;;;4935916;29;20466;-77
2021/07/10 03:02:44;;;;;;;1.33;1.23;;;16.60;99.90;;;;;;4945841;29;20548;-78
2021/07/10 03:05:10;;;;;;;0.90;0.80;;;16.60;99.90;;;;;;4939870;28;20419;-77
2021/07/10 03:07:38;;;;;;;0.70;0.60;;;16.60;99.90;;;;;;4947068;29;20908;-78
2021/07/10 03:10:10;;;;;;;1.23;0.90;;;16.60;99.90;;;;;;4936171;28;20777;-78
2021/07/10 03:12:36;;;;;;;1.77;1.67;;;16.60;99.90;;;;;;4935933;29;20943;-79
2021/07/10 03:15:01;;;;;;;1.10;1.00;;;16.60;99.90;;;;;;4934770;29;20418;-77
2021/07/10 03:17:27;;;;;;;0.90;0.70;;;16.70;99.90;;;;;;4942295;29;20178;-77
2021/07/10 03:19:53;;;;;;;1.83;1.43;;;16.70;99.90;;;;;;4952078;29;20182;-77
2021/07/10 03:22:19;;;;;;;1.10;1.00;;;16.70;99.90;;;;;;4945210;28;20186;-78
2021/07/10 03:24:44;;;;;;;1.20;0.93;;;16.70;99.90;;;;;;4950552;29;20425;-78
2021/07/10 03:27:10;;;;;;;1.37;1.27;;;16.70;99.90;;;;;;4950407;28;20288;-78
2021/07/10 03:29:36;;;;;;;0.80;0.73;;;16.70;99.90;;;;;;4941557;29;20170;-78
2021/07/10 03:32:02;;;;;;;2.70;0.97;;;16.70;99.90;;;;;;4946724;28;20198;-77
2021/07/10 03:34:27;;;;;;;3.43;2.03;;;16.70;99.90;;;;;;4937117;29;20466;-78
2021/07/10 03:36:53;;;;;;;1.10;1.00;;;16.60;99.90;;;;;;4936982;29;20517;-77
2021/07/10 03:39:21;;;;;;;1.60;1.50;;;16.60;99.90;;;;;;4947136;29;20640;-78
2021/07/10 03:41:47;;;;;;;1.93;1.73;;;16.60;99.90;;;;;;4937860;29;20210;-77
2021/07/10 03:44:13;;;;;;;0.70;0.60;;;16.60;99.90;;;;;;4955160;28;20415;-78
2021/07/10 03:46:38;;;;;;;1.33;1.23;;;16.60;99.90;;;;;;4942131;29;20563;-78
2021/07/10 03:49:04;;;;;;;0.93;0.83;;;16.60;99.90;;;;;;4939298;29;20201;-77
2021/07/10 03:51:29;;;;;;;0.70;0.60;;;16.60;99.90;;;;;;4953769;28;20195;-78
2021/07/10 03:53:55;;;;;;;1.47;1.37;;;16.60;99.90;;;;;;4936682;28;20175;-78
2021/07/10 03:56:21;;;;;;;1.60;1.10;;;16.60;99.90;;;;;;4938593;29;20217;-77
2021/07/10 03:58:47;;;;;;;0.80;0.50;;;16.50;99.90;;;;;;4947539;28;20547;-78
2021/07/10 04:01:13;;;;;;;1.50;1.27;;;16.50;99.90;;;;;;4936505;29;20422;-78
2021/07/10 04:03:38;;;;;;;2.10;1.73;;;16.40;99.90;;;;;;4936007;29;20186;-78
2021/07/10 04:06:04;;;;;;;0.70;0.50;;;16.40;99.90;;;;;;4947771;29;20666;-78
2021/07/10 04:08:29;;;;;;;0.70;0.50;;;16.40;99.90;;;;;;4937407;28;20171;-78
2021/07/10 04:10:55;;;;;;;1.10;1.00;;;16.50;99.90;;;;;;4929477;29;20678;-79
2021/07/10 04:13:20;;;;;;;0.80;0.70;;;16.50;99.90;;;;;;4935826;29;20553;-78
2021/07/10 04:15:46;;;;;;;0.80;0.80;;;16.50;99.90;;;;;;4931665;29;20222;-78
2021/07/10 04:18:12;;;;;;;0.97;0.87;;;16.50;99.90;;;;;;4934821;29;20183;-78
2021/07/10 04:20:37;;;;;;;1.00;0.60;;;16.50;99.90;;;;;;4950726;28;20203;-78
2021/07/10 04:23:05;;;;;;;2.90;1.53;;;16.50;99.90;;;;;;4935733;29;20174;-77
2021/07/10 04:25:31;;;;;;;1.23;1.13;;;16.60;99.90;;;;;;4934265;29;20198;-78
2021/07/10 04:27:57;;;;;;;1.10;1.00;;;16.60;99.90;;;;;;4934188;29;20736;-78
2021/07/10 04:30:23;;;;;;;1.10;0.93;;;16.60;99.90;;;;;;4936140;29;20474;-77
2021/07/10 04:32:50;;;;;;;0.90;0.80;;;16.70;99.90;;;;;;4931733;29;20186;-78
2021/07/10 04:35:16;;;;;;;4.90;2.23;;;16.70;99.90;;;;;;4927529;29;20433;-78
2021/07/10 04:37:42;;;;;;;0.93;0.83;;;16.80;99.90;;;;;;4934888;29;20431;-78
2021/07/10 04:40:08;;;;;;;1.63;1.53;;;16.90;99.90;;;;;;4939304;29;20446;-78
2021/07/10 04:42:34;;;;;;;1.30;1.20;;;17.00;99.90;;;;;;4936150;29;20179;-77
2021/07/10 04:45:00;;;;;;;1.33;0.87;;;17.00;99.90;;;;;;4926350;29;20805;-78
2021/07/10 04:47:26;;;;;;;2.47;1.00;;;17.10;99.90;;;;;;4936227;29;20473;-78
2021/07/10 04:49:51;;;;;;;0.93;0.73;;;17.20;99.90;;;;;;4936193;29;20186;-78
2021/07/10 04:52:17;;;;;;;0.90;0.67;;;17.30;99.90;;;;;;4936001;29;20186;-79
2021/07/10 04:54:43;;;;;;;1.27;1.00;;;17.30;99.90;;;;;;4937322;29;20174;-77
2021/07/10 04:57:08;;;;;;;1.07;0.97;;;17.40;99.90;;;;;;4938999;29;20277;-78
2021/07/10 04:59:34;;;;;;;1.67;1.00;;;17.50;99.90;;;;;;4940586;29;20266;-78
2021/07/10 05:01:59;;;;;;;1.17;1.00;;;17.60;99.90;;;;;;4929072;29;20203;-79
2021/07/10 05:04:25;;;;;;;2.67;2.10;;;17.70;99.90;;;;;;4956592;28;20636;-79
2021/07/10 05:06:51;;;;;;;1.90;1.80;;;17.70;99.90;;;;;;4939587;29;20198;-79
2021/07/10 05:09:17;;;;;;;1.10;1.00;;;17.80;99.90;;;;;;4939035;29;20181;-78
2021/07/10 05:11:42;;;;;;;1.53;1.43;;;17.90;99.90;;;;;;4939496;29;20207;-78
2021/07/10 05:14:08;;;;;;;0.80;0.80;;;17.90;99.90;;;;;;4940412;29;20414;-78
2021/07/10 05:16:34;;;;;;;2.20;1.33;;;17.90;99.90;;;;;;4939882;29;20182;-78
2021/07/10 05:19:00;;;;;;;2.07;1.10;;;18.00;99.90;;;;;;4935313;29;20222;-78
2021/07/10 05:21:25;;;;;;;1.60;1.50;;;18.00;99.90;;;;;;4941657;29;20186;-78
2021/07/10 05:23:51;;;;;;;1.43;0.90;;;18.10;99.90;;;;;;4939435;29;20422;-78
2021/07/10 05:26:17;;;;;;;2.50;1.90;;;18.10;99.90;;;;;;4938965;29;20854;-78
2021/07/10 05:28:42;;;;;;;1.77;1.60;;;18.20;99.90;;;;;;4940134;29;20175;-78
2021/07/10 05:31:08;;;;;;;3.20;3.00;;;18.20;99.90;;;;;;4941511;29;20195;-78
2021/07/10 05:33:33;;;;;;;2.07;1.97;;;18.30;99.90;;;;;;4936946;29;20255;-78
2021/07/10 05:35:59;;;;;;;2.27;1.13;;;18.30;99.90;;;;;;4938802;29;20186;-79
2021/07/10 05:38:26;;;;;;;1.47;1.37;;;18.40;99.90;;;;;;4941272;29;20210;-78
2021/07/10 05:40:52;;;;;;;1.50;1.03;;;18.40;99.90;;;;;;4940390;29;20199;-78
2021/07/10 05:43:19;;;;;;;0.80;0.60;;;18.50;99.90;;;;;;4940480;29;20439;-79
2021/07/10 05:45:45;;;;;;;1.43;1.20;;;18.50;99.90;;;;;;4936866;29;20461;-79
2021/07/10 05:48:11;;;;;;;2.43;1.60;;;18.50;99.90;;;;;;4940687;29;20422;-79
2021/07/10 05:50:36;;;;;;;1.30;1.17;;;18.50;99.90;;;;;;4949654;29;20201;-78
2021/07/10 05:53:02;;;;;;;0.70;0.60;;;18.50;99.90;;;;;;4946229;29;20646;-78
2021/07/10 05:55:27;;;;;;;1.70;0.90;;;18.60;99.90;;;;;;4943056;29;20186;-79
2021/07/10 05:57:53;;;;;;;1.70;1.60;;;18.60;99.90;;;;;;4944280;28;20725;-79
2021/07/10 06:00:18;;;;;;;1.97;1.87;;;18.70;99.90;;;;;;4941083;29;20202;-78
2021/07/10 06:02:44;;;;;;;1.50;1.10;;;18.80;99.90;;;;;;4950758;29;20170;-78
2021/07/10 06:05:10;;;;;;;1.30;1.20;;;18.80;99.90;;;;;;4958469;28;20190;-79
2021/07/10 06:07:38;;;;;;;2.13;1.37;;;18.90;99.90;;;;;;4956949;29;20221;-79
2021/07/10 06:10:06;;;;;;;2.17;1.60;;;19.00;99.90;;;;;;4956082;29;20453;-78
2021/07/10 06:12:32;;;;;;;1.20;1.10;;;19.00;99.90;;;;;;4946062;29;20431;-80
2021/07/10 06:14:57;;;;;;;1.83;0.90;;;19.20;99.90;;;;;;4938530;29;20427;-81
2021/07/10 06:17:26;;;;;;;3.20;1.80;;;19.30;99.90;;;;;;4944143;29;20185;-80
2021/07/10 06:19:53;;;;;;;0.80;0.80;;;19.50;99.90;;;;;;4939048;29;20175;-80
2021/07/10 06:22:19;;;;;;;1.30;1.20;;;19.60;99.90;;;;;;4938876;29;20435;-81
2021/07/10 06:24:44;;;;;;;1.30;1.20;;;19.70;99.90;;;;;;4940280;29;20434;-79
2021/07/10 06:27:10;;;;;;;0.93;0.83;;;19.80;99.90;;;;;;4941753;29;20306;-78
2021/07/10 06:29:36;;;;;;;1.20;1.10;;;19.80;99.90;;;;;;4939791;29;20606;-79
2021/07/10 06:32:01;;;;;;;1.27;0.60;;;19.90;99.90;;;;;;4949518;29;20282;-79
2021/07/10 06:34:27;;;;;;;2.50;1.10;;;20.00;99.90;;;;;;4938867;29;20477;-80
2021/07/10 06:36:52;;;;;;;6.30;2.53;;;20.00;99.90;;;;;;4938808;29;20233;-80
2021/07/10 06:39:20;;;;;;;3.60;3.40;;;20.10;99.90;;;;;;4936927;29;20175;-81
2021/07/10 06:41:46;;;;;;;1.90;0.90;;;20.20;99.90;;;;;;4939686;29;20206;-80
2021/07/10 06:44:11;;;;;;;3.43;1.40;;;20.20;99.90;;;;;;4954416;29;20426;-80
2021/07/10 06:46:37;;;;;;;1.30;1.00;;;20.30;99.90;;;;;;4950338;28;20476;-79
2021/07/10 06:49:03;;;;;;;1.20;1.10;;;20.40;99.90;;;;;;4949188;28;20178;-80
2021/07/10 06:51:29;;;;;;;0.90;0.70;;;20.40;99.90;;;;;;4942798;29;20800;-81
2021/07/10 06:53:54;;;;;;;4.20;1.57;;;20.40;99.90;;;;;;4939639;29;20198;-79
2021/07/10 06:56:20;;;;;;;0.93;0.80;;;20.50;99.90;;;;;;4956704;29;20185;-79
2021/07/10 06:58:46;;;;;;;1.70;1.60;;;20.50;99.90;;;;;;4949052;28;20623;-79
2021/07/10 07:01:11;;;;;;;1.10;0.97;;;20.60;99.90;;;;;;4942291;29;20323;-79
2021/07/10 07:03:37;;;;;;;1.20;1.00;;;20.70;99.90;;;;;;4954836;28;20175;-80
2021/07/10 07:06:03;;;;;;;1.53;1.00;;;20.70;99.90;;;;;;4941565;29;20230;-79
2021/07/10 07:08:29;;;;;;;0.90;0.80;;;20.80;99.90;;;;;;4943311;29;20280;-79
2021/07/10 07:10:54;;;;;;;1.53;1.13;;;20.90;99.90;;;;;;4937539;29;20461;-80
2021/07/10 07:13:20;;;;;;;0.87;0.70;;;21.00;99.90;;;;;;4938231;29;20171;-80
2021/07/10 07:15:45;;;;;;;1.00;0.90;;;21.20;99.90;;;;;;4939458;29;20314;-81
2021/07/10 07:18:15;;;;;;;1.27;1.17;;;21.30;99.90;;;;;;4953340;28;20190;-81
2021/07/10 07:20:43;;;;;;;1.80;1.20;;;21.40;99.90;;;;;;4941189;29;20286;-82
2021/07/10 07:23:09;;;;;;;1.10;1.00;;;21.60;99.90;;;;;;4939123;29;20467;-79
2021/07/10 07:25:35;;;;;;;2.03;1.80;;;21.80;99.90;;;;;;4937994;29;20469;-81
2021/07/10 07:28:01;;;;;;;2.03;1.40;;;22.00;99.90;;;;;;4954090;29;20983;-80
2021/07/10 07:30:27;;;;;;;1.00;0.90;;;22.20;99.90;;;;;;4953074;29;20198;-80
2021/07/10 07:32:53;;;;;;;1.50;1.40;;;22.40;99.90;;;;;;4951071;29;20170;-80
2021/07/10 07:35:20;;;;;;;3.43;3.07;;;22.60;99.90;;;;;;4954998;29;20700;-80
2021/07/10 07:37:46;;;;;;;1.10;1.00;;;22.60;99.90;;;;;;4955826;29;20414;-80
2021/07/10 07:40:15;;;;;;;5.00;1.70;;;22.70;99.90;;;;;;4954081;28;20446;-80
2021/07/10 07:42:43;;;;;;;1.57;1.17;;;22.70;99.90;;;;;;4953822;28;20465;-79
2021/07/10 07:45:10;;;;;;;3.40;1.97;;;22.80;99.90;;;;;;4940413;29;20423;-79
2021/07/10 07:47:37;;;;;;;1.30;1.20;;;22.90;99.90;;;;;;4941201;29;20469;-80
2021/07/10 07:50:05;;;;;;;2.60;1.70;;;23.00;99.90;;;;;;4957859;28;20939;-79
2021/07/10 07:52:31;;;;;;;1.40;1.07;;;23.10;99.90;;;;;;4950035;28;20484;-79
2021/07/10 07:54:56;;;;;;;1.17;1.00;;;23.20;99.90;;;;;;4947537;28;20470;-78
2021/07/10 07:57:22;;;;;;;1.83;1.67;;;23.20;99.90;;;;;;4947753;29;20182;-79
2021/07/10 07:59:47;;;;;;;1.00;0.90;;;23.30;99.90;;;;;;4944337;29;20183;-79
2021/07/10 08:02:13;;;;;;;1.00;0.90;;;23.40;99.90;;;;;;4940112;29;20177;-79
2021/07/10 08:04:39;;;;;;;0.90;0.80;;;23.50;99.90;;;;;;4954172;29;20190;-79
2021/07/10 08:07:04;;;;;;;1.93;1.80;;;23.50;99.90;;;;;;4943831;29;20206;-81
2021/07/10 08:09:30;;;;;;;1.00;0.90;;;23.60;99.90;;;;;;4937200;29;20277;-80
2021/07/10 08:11:57;;;;;;;2.83;1.20;;;23.50;99.90;;;;;;4949503;29;20210;-80
2021/07/10 08:14:22;;;;;;;1.20;1.10;;;23.50;99.90;;;;;;4951260;29;20186;-81
2021/07/10 08:16:49;;;;;;;2.80;0.90;;;23.60;99.90;;;;;;4942514;29;20762;-80
2021/07/10 08:19:15;;;;;;;1.60;1.50;;;23.80;99.90;;;;;;4936224;29;20634;-80
2021/07/10 08:21:41;;;;;;;1.77;1.33;;;23.90;99.90;;;;;;4935553;29;20548;-81
2021/07/10 08:24:07;;;;;;;2.30;2.00;;;24.10;99.90;;;;;;4937019;29;20198;-80
2021/07/10 08:26:33;;;;;;;2.00;1.90;;;24.20;99.90;;;;;;4930862;29;20552;-79
2021/07/10 08:28:58;;;;;;;2.07;1.67;;;24.40;99.90;;;;;;4940818;29;20198;-79
2021/07/10 08:31:24;;;;;;;1.80;1.43;;;24.50;99.90;;;;;;4940516;29;20577;-79
2021/07/10 08:33:49;;;;;;;2.70;2.03;;;24.60;99.90;;;;;;4945407;29;20167;-79
2021/07/10 08:36:15;;;;;;;2.23;2.03;;;24.70;99.90;;;;;;4943970;29;20178;-80
2021/07/10 08:38:41;;;;;;;0.93;0.80;;;24.90;99.90;;;;;;4941098;29;20713;-79
2021/07/10 08:41:12;;;;;;;2.93;1.43;;;25.00;99.90;;;;;;4941092;29;20213;-80
2021/07/10 08:43:40;;;;;;;1.30;1.20;;;25.20;99.90;;;;;;4943574;29;20641;-80
2021/07/10 08:46:06;;;;;;;3.57;1.47;;;25.50;99.90;;;;;;4950523;29;20821;-80
2021/07/10 08:48:33;;;;;;;2.00;1.13;;;25.50;99.90;;;;;;4945048;29;20938;-80
2021/07/10 08:51:01;;;;;;;1.40;1.20;;;25.80;99.90;;;;;;4945271;29;20457;-80
2021/07/10 08:53:27;;;;;;;2.77;1.50;;;26.10;99.90;;;;;;4944298;29;20426;-80
2021/07/10 08:55:53;;;;;;;3.03;1.50;;;26.20;99.90;;;;;;4949929;29;20939;-80
2021/07/10 08:58:20;;;;;;;1.87;1.77;;;26.30;99.90;;;;;;4954546;28;20186;-80
2021/07/10 09:00:47;;;;;;;1.93;1.17;;;26.50;99.90;;;;;;4946547;29;20457;-81
2021/07/10 09:03:13;;;;;;;2.10;1.40;;;26.60;99.90;;;;;;4941310;29;20525;-80
2021/07/10 09:05:39;;;;;;;2.20;1.30;;;26.80;99.90;;;;;;4959540;28;20857;-81
2021/07/10 09:08:17;;;;;;;1.20;1.10;;;26.80;99.90;;;;;;4946158;29;20427;-81
2021/07/10 09:10:45;;;;;;;1.93;1.63;;;27.00;99.90;;;;;;4943090;29;21078;-81
2021/07/10 09:13:12;;;;;;;1.60;1.50;;;27.10;99.90;;;;;;4951780;29;20769;-81
2021/07/10 09:15:39;;;;;;;1.10;1.00;;;27.10;99.90;;;;;;4940967;28;20761;-81
2021/07/10 09:18:08;;;;;;;3.57;2.57;;;27.10;99.90;;;;;;4940217;29;20415;-80
2021/07/10 09:20:34;;;;;;;1.20;0.93;;;26.80;99.90;;;;;;4943530;29;20501;-80
2021/07/10 09:23:01;;;;;;;2.90;2.13;;;26.80;99.90;;;;;;4943149;29;20410;-80
2021/07/10 09:25:29;;;;;;;1.03;0.93;;;27.00;99.90;;;;;;4952964;29;20464;-80
2021/07/10 09:27:57;;;;;;;1.00;0.90;;;27.00;99.90;;;;;;4957564;28;20453;-80
2021/07/10 09:30:40;;;;;;;1.07;0.97;;;27.00;99.90;;;;;;4941632;29;20453;-81
2021/07/10 09:33:19;;;;;;;1.20;1.10;;;26.80;99.90;;;;;;4941516;29;20420;-80
2021/07/10 09:36:03;;;;;;;2.03;1.57;;;26.90;99.90;;;;;;4939622;29;20434;-81
2021/07/10 09:38:33;;;;;;;1.77;1.40;;;27.00;99.90;;;;;;4941021;29;20430;-81
2021/07/10 09:41:06;;;;;;;2.37;1.50;;;26.90;99.90;;;;;;4945462;28;20489;-81
2021/07/10 09:43:34;;;;;;;1.43;1.30;;;26.80;99.90;;;;;;4940994;28;20444;-79
2021/07/10 09:46:02;;;;;;;1.90;1.40;;;26.80;99.90;;;;;;4933408;29;20451;-80
2021/07/10 09:48:33;;;;;;;2.20;1.30;;;26.80;99.90;;;;;;4934365;29;20435;-79
2021/07/10 09:51:27;;;;;;;2.67;1.43;;;26.80;99.90;;;;;;4934687;29;20446;-79
2021/07/10 09:54:01;;;;;;;2.00;1.57;;;26.80;99.90;;;;;;4939955;29;20423;-80
2021/07/10 09:56:31;;;;;;;2.53;1.93;;;26.80;99.90;;;;;;4940811;29;20426;-80
2021/07/10 09:58:57;;;;;;;1.77;1.57;;;26.90;99.90;;;;;;4935306;29;20435;-80
2021/07/10 10:01:36;;;;;;;1.70;1.60;;;26.70;99.90;;;;;;4939726;29;20457;-80
2021/07/10 10:04:20;;;;;;;1.07;0.90;;;26.80;99.90;;;;;;4941745;29;20521;-79
2021/07/10 10:06:46;;;;;;;2.20;1.77;;;27.00;99.90;;;;;;4938678;29;20457;-80
2021/07/10 10:09:17;;;;;;;2.40;1.43;;;26.90;99.90;;;;;;4955490;29;20418;-80
2021/07/10 10:12:05;;;;;;;1.40;1.30;;;27.00;99.90;;;;;;4949948;29;20620;-81
2021/07/10 10:14:32;;;;;;;6.93;1.60;;;26.80;99.90;;;;;;4935135;29;20418;-80
2021/07/10 10:16:59;;;;;;;2.13;1.67;;;26.60;99.90;;;;;;4935272;29;20995;-80
2021/07/10 10:19:28;;;;;;;1.33;1.23;;;26.40;99.90;;;;;;4939079;29;20485;-80
2021/07/10 10:21:57;;;;;;;1.40;1.20;;;26.20;99.90;;;;;;4924842;29;20443;-80
2021/07/10 10:24:24;;;;;;;2.73;1.37;;;26.10;99.90;;;;;;4949299;28;20438;-79
2021/07/10 10:26:50;;;;;;;1.50;1.40;;;25.80;99.90;;;;;;4926445;29;20797;-79
2021/07/10 10:29:18;;;;;;;1.77;1.67;;;25.60;99.90;;;;;;4939536;29;20431;-79
2021/07/10 10:31:44;;;;;;;1.20;0.93;;;25.60;99.90;;;;;;4939177;29;20533;-79
2021/07/10 10:34:11;;;;;;;1.73;1.63;;;25.60;99.90;;;;;;4938787;29;20566;-79
2021/07/10 10:36:40;;;;;;;1.63;1.13;;;25.60;99.90;;;;;;4938333;29;20493;-79
2021/07/10 10:39:27;;;;;;;2.63;1.67;;;25.70;99.90;;;;;;4939993;29;20441;-80
2021/07/10 10:42:05;;;;;;;2.37;1.60;;;25.80;99.90;;;;;;4946546;29;20450;-80
2021/07/10 10:44:37;;;;;;;1.73;1.00;;;25.80;99.90;;;;;;4936937;29;20513;-81
2021/07/10 10:47:04;;;;;;;3.50;3.23;;;25.80;99.90;;;;;;4935536;29;21051;-80
2021/07/10 10:49:49;;;;;;;1.70;1.60;;;25.50;99.90;;;;;;4938345;29;20413;-80
2021/07/10 10:52:33;;;;;;;2.37;1.57;;;25.60;99.90;;;;;;4937307;29;20433;-81
2021/07/10 10:55:15;;;;;;;1.47;0.90;;;25.60;99.90;;;;;;4934523;29;20416;-80
2021/07/10 10:57:56;;;;;;;1.90;1.60;;;25.70;99.90;;;;;;4941726;29;20434;-80
2021/07/10 11:00:29;;;;;;;1.33;1.23;;;25.70;99.90;;;;;;4947715;29;21002;-80
2021/07/10 11:03:05;;;;;;;1.30;0.97;;;25.70;99.90;;;;;;4938345;29;20502;-80
2021/07/10 11:05:39;;;;;;;1.57;1.47;;;25.80;99.90;;;;;;4933636;29;20458;-81
2021/07/10 11:08:23;;;;;;;1.20;1.10;;;25.80;99.90;;;;;;4936593;29;20434;-80
2021/07/10 11:10:58;;;;;;;2.33;0.80;;;25.70;99.90;;;;;;4938130;29;20450;-79
2021/07/10 11:13:28;;;;;;;2.03;1.30;;;25.70;99.90;;;;;;4939751;29;20399;-80
2021/07/10 11:16:10;;;;;;;2.20;2.10;;;25.70;99.90;;;;;;4926587;29;20431;-81
2021/07/10 11:19:00;;;;;;;1.70;1.53;;;25.80;99.90;;;;;;4935533;29;21167;-80
2021/07/10 11:21:31;;;;;;;1.37;1.27;;;25.90;99.90;;;;;;4937390;29;20456;-79
2021/07/10 11:24:26;;;;;;;1.90;1.73;;;26.00;99.90;;;;;;4939096;29;20438;-79
2021/07/10 11:26:55;;;;;;;1.23;1.00;;;26.20;99.90;;;;;;4928617;29;20494;-81
2021/07/10 11:29:39;;;;;;;2.10;1.00;;;26.40;99.90;;;;;;4935780;29;20454;-80
2021/07/10 11:32:19;;;;;;;1.80;1.17;;;26.50;99.90;;;;;;4937617;29;20454;-80
2021/07/10 11:34:50;;;;;;;1.20;1.10;;;26.60;99.90;;;;;;4937714;29;20473;-79
2021/07/10 11:37:24;;;;;;;1.57;1.47;;;26.80;99.90;;;;;;4935690;29;20454;-79
2021/07/10 11:39:53;;;;;;;1.13;0.90;;;26.80;99.90;;;;;;4939294;29;20558;-80
2021/07/10 11:42:20;;;;;;;1.10;0.97;;;26.90;99.90;;;;;;4938637;29;20509;-80
2021/07/10 11:44:47;;;;;;;1.43;1.20;;;27.00;99.90;;;;;;4939013;29;20795;-81
2021/07/10 11:47:28;;;;;;;1.50;0.97;;;27.00;99.90;;;;;;4933410;29;20976;-81
2021/07/10 11:49:56;;;;;;;1.57;1.27;;;27.00;99.90;;;;;;4952214;28;20438;-81
2021/07/10 11:52:22;;;;;;;2.43;2.23;;;27.00;99.90;;;;;;4936813;29;20836;-81
2021/07/10 11:54:57;;;;;;;1.17;0.93;;;27.00;99.90;;;;;;4936063;29;20438;-80
2021/07/10 11:57:26;;;;;;;0.80;0.70;;;27.00;99.90;;;;;;4938255;29;20442;-80
2021/07/10 11:59:53;;;;;;;1.10;0.97;;;27.00;99.90;;;;;;4934837;29;20812;-80
2021/07/10 12:02:25;;;;;;;2.20;1.43;;;26.90;99.90;;;;;;4937686;29;20838;-80
2021/07/10 12:05:09;;;;;;;1.10;1.00;;;26.90;99.90;;;;;;4935597;29;20445;-80
2021/07/10 12:07:39;;;;;;;1.30;1.20;;;26.80;99.90;;;;;;4949999;29;20598;-81
2021/07/10 12:10:19;;;;;;;1.80;0.80;;;26.80;99.90;;;;;;4937471;29;20461;-81
2021/07/10 12:12:44;;;;;;;1.97;0.90;;;26.60;99.90;;;;;;4943953;29;21017;-81
2021/07/10 12:15:32;;;;;;;1.10;1.00;;;26.50;99.90;;;;;;4935434;29;20462;-81
2021/07/10 12:18:00;;;;;;;0.97;0.87;;;26.40;99.90;;;;;;4935044;29;20183;-80
2021/07/10 12:20:28;;;;;;;1.20;1.00;;;26.20;99.90;;;;;;4934018;29;20446;-81
2021/07/10 12:22:57;;;;;;;1.57;1.07;;;26.10;99.90;;;;;;4935883;29;20450;-81
2021/07/10 12:25:26;;;;;;;2.30;1.00;;;26.00;99.90;;;;;;4955676;29;20505;-81
2021/07/10 12:27:57;;;;;;;1.37;0.97;;;25.90;99.90;;;;;;4935033;29;20441;-80
2021/07/10 12:30:39;;;;;;;1.50;1.40;;;25.90;99.90;;;;;;4944431;29;20445;-80
2021/07/10 12:33:24;;;;;;;2.20;1.60;;;25.90;99.90;;;;;;4935412;29;20434;-80
2021/07/10 12:36:19;;;;;;;1.13;0.80;;;25.90;99.90;;;;;;4921726;29;20439;-81
2021/07/10 12:38:52;;;;;;;1.27;1.03;;;25.80;99.90;;;;;;4930248;29;20447;-81
2021/07/10 12:41:25;;;;;;;1.97;1.77;;;25.90;99.90;;;;;;4960129;28;20477;-82
2021/07/10 12:43:51;;;;;;;1.30;1.20;;;25.90;99.90;;;;;;4955339;29;20414;-81
2021/07/10 12:46:18;;;;;;;1.73;1.63;;;25.90;99.90;;;;;;4938574;28;20557;-81
2021/07/10 12:48:45;;;;;;;1.97;1.43;;;26.00;99.90;;;;;;4934970;29;20430;-80
2021/07/10 12:51:12;;;;;;;1.57;1.40;;;26.10;99.90;;;;;;4934518;29;20514;-80
2021/07/10 12:53:39;;;;;;;1.37;1.27;;;26.20;99.90;;;;;;4944649;29;20418;-80